sensor_id;sensor_type;location;lat;lon;timestamp;P1;durP1;ratioP1;P2;durP2;ratioP2
25982;SDS011;13773;48.868;10.730;2023-10-31T00:01:31;2.50;;;2.10;;
25982;SDS011;13773;48.868;10.730;2023-10-31T00:03:57;1.80;;;1.60;;
25982;SDS011;13773;48.868;10.730;2023-10-31T00:06:23;3.03;;;1.90;;
25982;SDS011;13773;48.868;10.730;2023-10-31T00:08:48;1.70;;;1.60;;
25982;SDS011;13773;48.868;10.730;2023-10-31T00:11:14;1.67;;;1.40;;
25982;SDS011;13773;48.868;10.730;2023-10-31T00:13:41;1.73;;;1.40;;
25982;SDS011;13773;48.868;10.730;2023-10-31T00:16:07;1.80;;;1.37;;
25982;SDS011;13773;48.868;10.730;2023-10-31T00:18:33;1.33;;;1.23;;
25982;SDS011;13773;48.868;10.730;2023-10-31T00:20:59;1.43;;;1.30;;
25982;SDS011;13773;48.868;10.730;2023-10-31T00:23:24;2.30;;;1.17;;
25982;SDS011;13773;48.868;10.730;2023-10-31T00:25:50;1.53;;;1.30;;
25982;SDS011;13773;48.868;10.730;2023-10-31T00:28:15;1.30;;;1.20;;
25982;SDS011;13773;48.868;10.730;2023-10-31T00:30:41;1.80;;;1.23;;
25982;SDS011;13773;48.868;10.730;2023-10-31T00:33:07;1.30;;;1.20;;
25982;SDS011;13773;48.868;10.730;2023-10-31T00:35:32;0.77;;;0.77;;
25982;SDS011;13773;48.868;10.730;2023-10-31T00:37:58;0.87;;;0.77;;
25982;SDS011;13773;48.868;10.730;2023-10-31T00:40:24;1.20;;;0.97;;
25982;SDS011;13773;48.868;10.730;2023-10-31T00:42:49;1.00;;;0.90;;
25982;SDS011;13773;48.868;10.730;2023-10-31T00:45:15;1.13;;;0.80;;
25982;SDS011;13773;48.868;10.730;2023-10-31T00:47:41;1.90;;;1.20;;
25982;SDS011;13773;48.868;10.730;2023-10-31T00:50:06;1.23;;;1.13;;
25982;SDS011;13773;48.868;10.730;2023-10-31T00:52:33;1.40;;;1.30;;
25982;SDS011;13773;48.868;10.730;2023-10-31T00:54:58;1.53;;;1.43;;
25982;SDS011;13773;48.868;10.730;2023-10-31T00:57:24;1.30;;;1.20;;
25982;SDS011;13773;48.868;10.730;2023-10-31T00:59:50;2.53;;;1.50;;
25982;SDS011;13773;48.868;10.730;2023-10-31T01:02:15;1.40;;;1.30;;
25982;SDS011;13773;48.868;10.730;2023-10-31T01:04:41;1.10;;;1.00;;
25982;SDS011;13773;48.868;10.730;2023-10-31T01:07:07;1.57;;;0.97;;
25982;SDS011;13773;48.868;10.730;2023-10-31T01:09:36;1.20;;;1.07;;
25982;SDS011;13773;48.868;10.730;2023-10-31T01:12:03;1.23;;;1.07;;
25982;SDS011;13773;48.868;10.730;2023-10-31T01:14:29;1.10;;;1.00;;
25982;SDS011;13773;48.868;10.730;2023-10-31T01:16:54;1.77;;;1.47;;
25982;SDS011;13773;48.868;10.730;2023-10-31T01:19:20;1.97;;;1.20;;
25982;SDS011;13773;48.868;10.730;2023-10-31T01:21:46;1.40;;;1.13;;
25982;SDS011;13773;48.868;10.730;2023-10-31T01:24:12;1.50;;;1.30;;
25982;SDS011;13773;48.868;10.730;2023-10-31T01:26:37;1.30;;;1.20;;
25982;SDS011;13773;48.868;10.730;2023-10-31T01:29:03;1.83;;;1.40;;
25982;SDS011;13773;48.868;10.730;2023-10-31T01:31:29;2.07;;;1.37;;
25982;SDS011;13773;48.868;10.730;2023-10-31T01:33:54;1.70;;;1.40;;
25982;SDS011;13773;48.868;10.730;2023-10-31T01:36:23;1.47;;;1.20;;
25982;SDS011;13773;48.868;10.730;2023-10-31T01:38:51;1.20;;;1.10;;
25982;SDS011;13773;48.868;10.730;2023-10-31T01:41:17;1.50;;;1.40;;
25982;SDS011;13773;48.868;10.730;2023-10-31T01:43:42;1.60;;;1.50;;
25982;SDS011;13773;48.868;10.730;2023-10-31T01:46:08;2.53;;;1.50;;
25982;SDS011;13773;48.868;10.730;2023-10-31T01:48:34;1.70;;;1.50;;
25982;SDS011;13773;48.868;10.730;2023-10-31T01:51:00;3.30;;;2.07;;
25982;SDS011;13773;48.868;10.730;2023-10-31T01:53:28;2.50;;;2.27;;
25982;SDS011;13773;48.868;10.730;2023-10-31T01:55:57;2.40;;;2.20;;
25982;SDS011;13773;48.868;10.730;2023-10-31T01:58:28;3.40;;;3.10;;
25982;SDS011;13773;48.868;10.730;2023-10-31T02:00:55;3.67;;;3.20;;
25982;SDS011;13773;48.868;10.730;2023-10-31T02:03:21;5.13;;;3.90;;
25982;SDS011;13773;48.868;10.730;2023-10-31T02:05:47;4.07;;;3.60;;
25982;SDS011;13773;48.868;10.730;2023-10-31T02:08:13;5.20;;;4.00;;
25982;SDS011;13773;48.868;10.730;2023-10-31T02:10:39;5.00;;;4.60;;
25982;SDS011;13773;48.868;10.730;2023-10-31T02:13:14;5.37;;;4.87;;
25982;SDS011;13773;48.868;10.730;2023-10-31T02:15:41;5.97;;;5.13;;
25982;SDS011;13773;48.868;10.730;2023-10-31T02:18:07;7.00;;;6.30;;
25982;SDS011;13773;48.868;10.730;2023-10-31T02:20:33;6.50;;;5.70;;
25982;SDS011;13773;48.868;10.730;2023-10-31T02:22:59;5.00;;;4.50;;
25982;SDS011;13773;48.868;10.730;2023-10-31T02:25:25;4.00;;;3.63;;
25982;SDS011;13773;48.868;10.730;2023-10-31T02:27:51;3.03;;;2.60;;
25982;SDS011;13773;48.868;10.730;2023-10-31T02:30:17;2.90;;;2.70;;
25982;SDS011;13773;48.868;10.730;2023-10-31T02:32:42;3.47;;;3.13;;
25982;SDS011;13773;48.868;10.730;2023-10-31T02:35:08;1.93;;;1.73;;
25982;SDS011;13773;48.868;10.730;2023-10-31T02:37:34;1.40;;;1.30;;
25982;SDS011;13773;48.868;10.730;2023-10-31T02:40:00;2.90;;;1.30;;
25982;SDS011;13773;48.868;10.730;2023-10-31T02:42:26;0.90;;;0.90;;
25982;SDS011;13773;48.868;10.730;2023-10-31T02:44:52;1.07;;;0.80;;
25982;SDS011;13773;48.868;10.730;2023-10-31T02:47:18;0.60;;;0.60;;
25982;SDS011;13773;48.868;10.730;2023-10-31T02:49:44;1.00;;;0.70;;
25982;SDS011;13773;48.868;10.730;2023-10-31T02:52:10;1.47;;;0.73;;
25982;SDS011;13773;48.868;10.730;2023-10-31T02:54:36;1.73;;;0.80;;
25982;SDS011;13773;48.868;10.730;2023-10-31T02:57:02;0.90;;;0.70;;
25982;SDS011;13773;48.868;10.730;2023-10-31T02:59:28;1.30;;;0.80;;
25982;SDS011;13773;48.868;10.730;2023-10-31T03:01:53;1.60;;;0.70;;
25982;SDS011;13773;48.868;10.730;2023-10-31T03:04:21;1.07;;;0.90;;
25982;SDS011;13773;48.868;10.730;2023-10-31T03:06:46;1.10;;;0.80;;
25982;SDS011;13773;48.868;10.730;2023-10-31T03:09:12;2.70;;;0.90;;
25982;SDS011;13773;48.868;10.730;2023-10-31T03:11:38;0.70;;;0.70;;
25982;SDS011;13773;48.868;10.730;2023-10-31T03:14:03;1.10;;;0.87;;
25982;SDS011;13773;48.868;10.730;2023-10-31T03:16:29;1.20;;;0.80;;
25982;SDS011;13773;48.868;10.730;2023-10-31T03:18:55;0.83;;;0.70;;
25982;SDS011;13773;48.868;10.730;2023-10-31T03:21:21;2.67;;;0.83;;
25982;SDS011;13773;48.868;10.730;2023-10-31T03:23:47;1.07;;;0.73;;
25982;SDS011;13773;48.868;10.730;2023-10-31T03:26:14;3.13;;;0.80;;
25982;SDS011;13773;48.868;10.730;2023-10-31T03:28:40;1.53;;;0.80;;
25982;SDS011;13773;48.868;10.730;2023-10-31T03:31:08;0.87;;;0.83;;
25982;SDS011;13773;48.868;10.730;2023-10-31T03:33:34;2.23;;;0.87;;
25982;SDS011;13773;48.868;10.730;2023-10-31T03:36:00;2.30;;;1.00;;
25982;SDS011;13773;48.868;10.730;2023-10-31T03:38:25;3.17;;;1.13;;
25982;SDS011;13773;48.868;10.730;2023-10-31T03:40:51;1.10;;;0.77;;
25982;SDS011;13773;48.868;10.730;2023-10-31T03:43:17;1.53;;;0.80;;
25982;SDS011;13773;48.868;10.730;2023-10-31T03:45:43;1.10;;;0.80;;
25982;SDS011;13773;48.868;10.730;2023-10-31T03:48:10;1.10;;;0.70;;
25982;SDS011;13773;48.868;10.730;2023-10-31T03:50:36;0.80;;;0.70;;
25982;SDS011;13773;48.868;10.730;2023-10-31T03:53:01;1.43;;;0.70;;
25982;SDS011;13773;48.868;10.730;2023-10-31T03:55:27;0.70;;;0.70;;
25982;SDS011;13773;48.868;10.730;2023-10-31T03:57:53;0.93;;;0.70;;
25982;SDS011;13773;48.868;10.730;2023-10-31T04:00:18;0.60;;;0.60;;
25982;SDS011;13773;48.868;10.730;2023-10-31T04:02:44;1.00;;;0.90;;
25982;SDS011;13773;48.868;10.730;2023-10-31T04:05:10;2.23;;;0.90;;
25982;SDS011;13773;48.868;10.730;2023-10-31T04:07:35;0.77;;;0.77;;
25982;SDS011;13773;48.868;10.730;2023-10-31T04:10:01;1.57;;;0.90;;
25982;SDS011;13773;48.868;10.730;2023-10-31T04:12:28;2.97;;;0.80;;
25982;SDS011;13773;48.868;10.730;2023-10-31T04:14:53;4.63;;;0.90;;
25982;SDS011;13773;48.868;10.730;2023-10-31T04:17:19;0.90;;;0.60;;
25982;SDS011;13773;48.868;10.730;2023-10-31T04:19:44;2.80;;;1.17;;
25982;SDS011;13773;48.868;10.730;2023-10-31T04:22:10;1.27;;;0.70;;
25982;SDS011;13773;48.868;10.730;2023-10-31T04:24:36;1.57;;;0.70;;
25982;SDS011;13773;48.868;10.730;2023-10-31T04:27:01;0.83;;;0.70;;
25982;SDS011;13773;48.868;10.730;2023-10-31T04:29:27;2.00;;;1.00;;
25982;SDS011;13773;48.868;10.730;2023-10-31T04:31:53;2.40;;;0.90;;
25982;SDS011;13773;48.868;10.730;2023-10-31T04:34:18;1.13;;;0.87;;
25982;SDS011;13773;48.868;10.730;2023-10-31T04:36:44;0.97;;;0.90;;
25982;SDS011;13773;48.868;10.730;2023-10-31T04:39:10;1.23;;;1.00;;
25982;SDS011;13773;48.868;10.730;2023-10-31T04:41:36;2.40;;;1.30;;
25982;SDS011;13773;48.868;10.730;2023-10-31T04:44:01;1.20;;;1.00;;
25982;SDS011;13773;48.868;10.730;2023-10-31T04:46:28;1.30;;;0.97;;
25982;SDS011;13773;48.868;10.730;2023-10-31T04:48:53;0.70;;;0.70;;
25982;SDS011;13773;48.868;10.730;2023-10-31T04:51:19;1.33;;;0.80;;
25982;SDS011;13773;48.868;10.730;2023-10-31T04:53:45;0.80;;;0.80;;
25982;SDS011;13773;48.868;10.730;2023-10-31T04:56:14;2.27;;;1.00;;
25982;SDS011;13773;48.868;10.730;2023-10-31T04:58:41;1.50;;;0.80;;
25982;SDS011;13773;48.868;10.730;2023-10-31T05:01:08;1.20;;;0.90;;
25982;SDS011;13773;48.868;10.730;2023-10-31T05:03:34;1.10;;;1.00;;
25982;SDS011;13773;48.868;10.730;2023-10-31T05:05:59;1.40;;;1.00;;
25982;SDS011;13773;48.868;10.730;2023-10-31T05:08:25;1.57;;;1.00;;
25982;SDS011;13773;48.868;10.730;2023-10-31T05:10:51;1.80;;;1.10;;
25982;SDS011;13773;48.868;10.730;2023-10-31T05:13:16;1.63;;;1.03;;
25982;SDS011;13773;48.868;10.730;2023-10-31T05:15:42;1.87;;;1.10;;
25982;SDS011;13773;48.868;10.730;2023-10-31T05:18:08;1.83;;;1.13;;
25982;SDS011;13773;48.868;10.730;2023-10-31T05:20:34;2.10;;;1.27;;
25982;SDS011;13773;48.868;10.730;2023-10-31T05:23:00;1.53;;;1.20;;
25982;SDS011;13773;48.868;10.730;2023-10-31T05:25:25;1.10;;;1.00;;
25982;SDS011;13773;48.868;10.730;2023-10-31T05:27:51;2.20;;;0.97;;
25982;SDS011;13773;48.868;10.730;2023-10-31T05:30:17;1.20;;;0.90;;
25982;SDS011;13773;48.868;10.730;2023-10-31T05:32:43;0.90;;;0.90;;
25982;SDS011;13773;48.868;10.730;2023-10-31T05:35:09;4.13;;;1.20;;
25982;SDS011;13773;48.868;10.730;2023-10-31T05:37:35;2.07;;;0.80;;
25982;SDS011;13773;48.868;10.730;2023-10-31T05:40:01;0.97;;;0.90;;
25982;SDS011;13773;48.868;10.730;2023-10-31T05:42:27;2.77;;;0.80;;
25982;SDS011;13773;48.868;10.730;2023-10-31T05:44:54;1.67;;;1.03;;
25982;SDS011;13773;48.868;10.730;2023-10-31T05:47:20;2.33;;;1.37;;
25982;SDS011;13773;48.868;10.730;2023-10-31T05:49:46;4.80;;;1.40;;
25982;SDS011;13773;48.868;10.730;2023-10-31T05:52:11;1.93;;;1.23;;
25982;SDS011;13773;48.868;10.730;2023-10-31T05:54:37;1.10;;;1.00;;
25982;SDS011;13773;48.868;10.730;2023-10-31T05:57:03;3.33;;;1.27;;
25982;SDS011;13773;48.868;10.730;2023-10-31T05:59:28;3.87;;;1.97;;
25982;SDS011;13773;48.868;10.730;2023-10-31T06:01:54;4.47;;;1.70;;
25982;SDS011;13773;48.868;10.730;2023-10-31T06:04:20;2.30;;;1.90;;
25982;SDS011;13773;48.868;10.730;2023-10-31T06:06:45;2.00;;;1.50;;
25982;SDS011;13773;48.868;10.730;2023-10-31T06:09:11;2.37;;;1.20;;
25982;SDS011;13773;48.868;10.730;2023-10-31T06:11:40;2.50;;;1.67;;
25982;SDS011;13773;48.868;10.730;2023-10-31T06:14:07;1.70;;;1.43;;
25982;SDS011;13773;48.868;10.730;2023-10-31T06:16:39;2.00;;;1.00;;
25982;SDS011;13773;48.868;10.730;2023-10-31T06:19:08;1.87;;;1.00;;
25982;SDS011;13773;48.868;10.730;2023-10-31T06:21:34;2.10;;;0.97;;
25982;SDS011;13773;48.868;10.730;2023-10-31T06:24:00;1.40;;;1.30;;
25982;SDS011;13773;48.868;10.730;2023-10-31T06:26:25;2.00;;;1.17;;
25982;SDS011;13773;48.868;10.730;2023-10-31T06:28:52;3.43;;;1.10;;
25982;SDS011;13773;48.868;10.730;2023-10-31T06:31:18;1.73;;;1.60;;
25982;SDS011;13773;48.868;10.730;2023-10-31T06:33:43;1.70;;;1.50;;
25982;SDS011;13773;48.868;10.730;2023-10-31T06:36:09;3.87;;;1.90;;
25982;SDS011;13773;48.868;10.730;2023-10-31T06:38:35;1.83;;;1.40;;
25982;SDS011;13773;48.868;10.730;2023-10-31T06:41:00;1.97;;;1.60;;
25982;SDS011;13773;48.868;10.730;2023-10-31T06:43:26;3.47;;;1.40;;
25982;SDS011;13773;48.868;10.730;2023-10-31T06:45:53;1.47;;;1.10;;
25982;SDS011;13773;48.868;10.730;2023-10-31T06:48:20;1.83;;;1.23;;
25982;SDS011;13773;48.868;10.730;2023-10-31T06:50:45;2.03;;;1.27;;
25982;SDS011;13773;48.868;10.730;2023-10-31T06:53:11;3.20;;;1.20;;
25982;SDS011;13773;48.868;10.730;2023-10-31T06:55:37;0.80;;;0.80;;
25982;SDS011;13773;48.868;10.730;2023-10-31T06:58:02;2.47;;;1.10;;
25982;SDS011;13773;48.868;10.730;2023-10-31T07:00:28;1.40;;;1.00;;
25982;SDS011;13773;48.868;10.730;2023-10-31T07:02:54;0.87;;;0.83;;
25982;SDS011;13773;48.868;10.730;2023-10-31T07:05:20;1.40;;;1.10;;
25982;SDS011;13773;48.868;10.730;2023-10-31T07:07:46;1.37;;;1.00;;
25982;SDS011;13773;48.868;10.730;2023-10-31T07:10:12;3.00;;;1.97;;
25982;SDS011;13773;48.868;10.730;2023-10-31T07:12:38;0.77;;;0.73;;
25982;SDS011;13773;48.868;10.730;2023-10-31T07:15:04;2.17;;;0.77;;
25982;SDS011;13773;48.868;10.730;2023-10-31T07:17:30;1.50;;;1.03;;
25982;SDS011;13773;48.868;10.730;2023-10-31T07:19:56;1.03;;;0.93;;
25982;SDS011;13773;48.868;10.730;2023-10-31T07:22:22;1.10;;;0.70;;
25982;SDS011;13773;48.868;10.730;2023-10-31T07:24:50;1.63;;;0.80;;
25982;SDS011;13773;48.868;10.730;2023-10-31T07:27:16;0.80;;;0.80;;
25982;SDS011;13773;48.868;10.730;2023-10-31T07:29:42;1.97;;;0.87;;
25982;SDS011;13773;48.868;10.730;2023-10-31T07:32:08;1.57;;;0.90;;
25982;SDS011;13773;48.868;10.730;2023-10-31T07:34:34;0.77;;;0.77;;
25982;SDS011;13773;48.868;10.730;2023-10-31T07:37:00;1.70;;;1.17;;
25982;SDS011;13773;48.868;10.730;2023-10-31T07:39:26;0.90;;;0.80;;
25982;SDS011;13773;48.868;10.730;2023-10-31T07:41:51;0.70;;;0.70;;
25982;SDS011;13773;48.868;10.730;2023-10-31T07:44:17;1.13;;;0.87;;
25982;SDS011;13773;48.868;10.730;2023-10-31T07:46:43;0.67;;;0.67;;
25982;SDS011;13773;48.868;10.730;2023-10-31T07:49:08;2.13;;;0.60;;
25982;SDS011;13773;48.868;10.730;2023-10-31T07:51:34;0.60;;;0.60;;
25982;SDS011;13773;48.868;10.730;2023-10-31T07:53:59;0.60;;;0.60;;
25982;SDS011;13773;48.868;10.730;2023-10-31T07:56:25;1.20;;;0.70;;
25982;SDS011;13773;48.868;10.730;2023-10-31T07:58:51;1.33;;;0.40;;
25982;SDS011;13773;48.868;10.730;2023-10-31T08:01:17;1.83;;;0.80;;
25982;SDS011;13773;48.868;10.730;2023-10-31T08:03:44;1.57;;;0.57;;
25982;SDS011;13773;48.868;10.730;2023-10-31T08:06:12;0.40;;;0.40;;
25982;SDS011;13773;48.868;10.730;2023-10-31T08:08:37;0.67;;;0.50;;
25982;SDS011;13773;48.868;10.730;2023-10-31T08:11:03;0.70;;;0.63;;
25982;SDS011;13773;48.868;10.730;2023-10-31T08:13:32;1.27;;;0.93;;
25982;SDS011;13773;48.868;10.730;2023-10-31T08:15:58;2.43;;;0.60;;
25982;SDS011;13773;48.868;10.730;2023-10-31T08:18:23;0.93;;;0.80;;
25982;SDS011;13773;48.868;10.730;2023-10-31T08:20:49;1.27;;;0.73;;
25982;SDS011;13773;48.868;10.730;2023-10-31T08:23:18;0.93;;;0.40;;
25982;SDS011;13773;48.868;10.730;2023-10-31T08:25:44;1.80;;;0.70;;
25982;SDS011;13773;48.868;10.730;2023-10-31T08:28:10;0.60;;;0.57;;
25982;SDS011;13773;48.868;10.730;2023-10-31T08:30:36;1.60;;;0.70;;
25982;SDS011;13773;48.868;10.730;2023-10-31T08:33:03;0.73;;;0.53;;
25982;SDS011;13773;48.868;10.730;2023-10-31T08:35:29;0.70;;;0.60;;
25982;SDS011;13773;48.868;10.730;2023-10-31T08:37:55;1.67;;;0.60;;
25982;SDS011;13773;48.868;10.730;2023-10-31T08:40:20;0.80;;;0.60;;
25982;SDS011;13773;48.868;10.730;2023-10-31T08:42:46;0.50;;;0.50;;
25982;SDS011;13773;48.868;10.730;2023-10-31T08:45:12;1.37;;;0.80;;
25982;SDS011;13773;48.868;10.730;2023-10-31T08:47:37;1.30;;;0.97;;
25982;SDS011;13773;48.868;10.730;2023-10-31T08:50:03;2.70;;;0.73;;
25982;SDS011;13773;48.868;10.730;2023-10-31T08:52:29;0.97;;;0.70;;
25982;SDS011;13773;48.868;10.730;2023-10-31T08:54:55;1.13;;;0.70;;
25982;SDS011;13773;48.868;10.730;2023-10-31T08:57:22;3.50;;;0.70;;
25982;SDS011;13773;48.868;10.730;2023-10-31T08:59:47;1.60;;;0.70;;
25982;SDS011;13773;48.868;10.730;2023-10-31T09:02:13;2.30;;;0.70;;
25982;SDS011;13773;48.868;10.730;2023-10-31T09:04:39;2.30;;;0.70;;
25982;SDS011;13773;48.868;10.730;2023-10-31T09:07:04;0.67;;;0.67;;
25982;SDS011;13773;48.868;10.730;2023-10-31T09:09:30;4.50;;;1.00;;
25982;SDS011;13773;48.868;10.730;2023-10-31T09:11:56;0.50;;;0.50;;
25982;SDS011;13773;48.868;10.730;2023-10-31T09:14:21;1.00;;;0.60;;
25982;SDS011;13773;48.868;10.730;2023-10-31T09:16:47;1.17;;;0.67;;
25982;SDS011;13773;48.868;10.730;2023-10-31T09:19:12;4.17;;;0.80;;
25982;SDS011;13773;48.868;10.730;2023-10-31T09:21:38;1.43;;;0.77;;
25982;SDS011;13773;48.868;10.730;2023-10-31T09:24:04;2.07;;;0.90;;
25982;SDS011;13773;48.868;10.730;2023-10-31T09:26:30;1.63;;;0.60;;
25982;SDS011;13773;48.868;10.730;2023-10-31T09:28:56;2.20;;;0.60;;
25982;SDS011;13773;48.868;10.730;2023-10-31T09:31:21;1.60;;;0.80;;
25982;SDS011;13773;48.868;10.730;2023-10-31T09:33:47;1.27;;;0.70;;
25982;SDS011;13773;48.868;10.730;2023-10-31T09:36:13;1.37;;;0.60;;
25982;SDS011;13773;48.868;10.730;2023-10-31T09:38:39;2.70;;;1.63;;
25982;SDS011;13773;48.868;10.730;2023-10-31T09:41:05;0.90;;;0.70;;
25982;SDS011;13773;48.868;10.730;2023-10-31T09:43:31;1.00;;;0.70;;
25982;SDS011;13773;48.868;10.730;2023-10-31T09:45:57;2.40;;;0.80;;
25982;SDS011;13773;48.868;10.730;2023-10-31T09:48:25;4.20;;;0.80;;
25982;SDS011;13773;48.868;10.730;2023-10-31T09:50:51;1.37;;;0.67;;
25982;SDS011;13773;48.868;10.730;2023-10-31T09:53:18;2.40;;;0.80;;
25982;SDS011;13773;48.868;10.730;2023-10-31T09:55:46;1.10;;;0.60;;
25982;SDS011;13773;48.868;10.730;2023-10-31T09:58:12;2.10;;;0.90;;
25982;SDS011;13773;48.868;10.730;2023-10-31T10:00:38;5.17;;;1.30;;
25982;SDS011;13773;48.868;10.730;2023-10-31T10:03:08;2.90;;;0.73;;
25982;SDS011;13773;48.868;10.730;2023-10-31T10:05:34;1.87;;;0.67;;
25982;SDS011;13773;48.868;10.730;2023-10-31T10:08:00;0.80;;;0.50;;
25982;SDS011;13773;48.868;10.730;2023-10-31T10:10:26;3.77;;;1.10;;
25982;SDS011;13773;48.868;10.730;2023-10-31T10:12:54;2.67;;;1.00;;
25982;SDS011;13773;48.868;10.730;2023-10-31T10:15:20;2.40;;;1.20;;
25982;SDS011;13773;48.868;10.730;2023-10-31T10:17:52;2.10;;;0.70;;
25982;SDS011;13773;48.868;10.730;2023-10-31T10:20:18;1.00;;;0.70;;
25982;SDS011;13773;48.868;10.730;2023-10-31T10:22:44;2.27;;;0.73;;
25982;SDS011;13773;48.868;10.730;2023-10-31T10:25:14;0.83;;;0.60;;
25982;SDS011;13773;48.868;10.730;2023-10-31T10:27:42;2.00;;;0.80;;
25982;SDS011;13773;48.868;10.730;2023-10-31T10:30:09;3.47;;;1.30;;
25982;SDS011;13773;48.868;10.730;2023-10-31T10:32:35;1.10;;;0.77;;
25982;SDS011;13773;48.868;10.730;2023-10-31T10:35:00;3.20;;;1.10;;
25982;SDS011;13773;48.868;10.730;2023-10-31T10:37:27;3.17;;;1.10;;
25982;SDS011;13773;48.868;10.730;2023-10-31T10:39:55;1.97;;;0.80;;
25982;SDS011;13773;48.868;10.730;2023-10-31T10:43:04;4.40;;;1.57;;
25982;SDS011;13773;48.868;10.730;2023-10-31T10:45:14;1.33;;;0.70;;
25982;SDS011;13773;48.868;10.730;2023-10-31T10:47:46;2.00;;;0.77;;
25982;SDS011;13773;48.868;10.730;2023-10-31T10:50:14;0.97;;;0.60;;
25982;SDS011;13773;48.868;10.730;2023-10-31T10:52:44;3.07;;;0.73;;
25982;SDS011;13773;48.868;10.730;2023-10-31T10:55:35;3.03;;;0.73;;
25982;SDS011;13773;48.868;10.730;2023-10-31T10:58:22;2.30;;;0.80;;
25982;SDS011;13773;48.868;10.730;2023-10-31T11:01:18;2.33;;;0.80;;
25982;SDS011;13773;48.868;10.730;2023-10-31T11:03:45;1.30;;;0.73;;
25982;SDS011;13773;48.868;10.730;2023-10-31T11:06:12;1.40;;;0.83;;
25982;SDS011;13773;48.868;10.730;2023-10-31T11:08:39;2.00;;;0.77;;
25982;SDS011;13773;48.868;10.730;2023-10-31T11:11:05;2.43;;;1.03;;
25982;SDS011;13773;48.868;10.730;2023-10-31T11:13:31;4.33;;;1.20;;
25982;SDS011;13773;48.868;10.730;2023-10-31T11:15:59;1.50;;;0.77;;
25982;SDS011;13773;48.868;10.730;2023-10-31T11:18:31;2.80;;;1.03;;
25982;SDS011;13773;48.868;10.730;2023-10-31T11:20:57;4.27;;;1.70;;
25982;SDS011;13773;48.868;10.730;2023-10-31T11:23:23;1.10;;;0.50;;
25982;SDS011;13773;48.868;10.730;2023-10-31T11:25:49;1.67;;;0.80;;
25982;SDS011;13773;48.868;10.730;2023-10-31T11:28:18;2.47;;;1.17;;
25982;SDS011;13773;48.868;10.730;2023-10-31T11:30:45;2.20;;;1.00;;
25982;SDS011;13773;48.868;10.730;2023-10-31T11:33:14;1.70;;;0.83;;
25982;SDS011;13773;48.868;10.730;2023-10-31T11:35:41;2.50;;;0.87;;
25982;SDS011;13773;48.868;10.730;2023-10-31T11:38:09;1.57;;;0.80;;
25982;SDS011;13773;48.868;10.730;2023-10-31T11:43:14;2.67;;;1.07;;
25982;SDS011;13773;48.868;10.730;2023-10-31T11:45:41;2.57;;;0.83;;
25982;SDS011;13773;48.868;10.730;2023-10-31T11:48:12;4.83;;;1.17;;
25982;SDS011;13773;48.868;10.730;2023-10-31T11:50:38;1.40;;;0.70;;
25982;SDS011;13773;48.868;10.730;2023-10-31T11:53:08;2.03;;;0.90;;
25982;SDS011;13773;48.868;10.730;2023-10-31T11:55:40;2.20;;;0.83;;
25982;SDS011;13773;48.868;10.730;2023-10-31T11:58:23;2.63;;;1.37;;
25982;SDS011;13773;48.868;10.730;2023-10-31T12:00:51;2.40;;;0.97;;
25982;SDS011;13773;48.868;10.730;2023-10-31T12:03:25;5.30;;;0.90;;
25982;SDS011;13773;48.868;10.730;2023-10-31T12:05:52;2.63;;;1.03;;
25982;SDS011;13773;48.868;10.730;2023-10-31T12:08:25;3.53;;;1.10;;
25982;SDS011;13773;48.868;10.730;2023-10-31T12:10:52;3.07;;;1.00;;
25982;SDS011;13773;48.868;10.730;2023-10-31T12:13:17;0.70;;;0.70;;
25982;SDS011;13773;48.868;10.730;2023-10-31T12:15:51;3.27;;;0.90;;
25982;SDS011;13773;48.868;10.730;2023-10-31T12:18:18;3.80;;;0.80;;
25982;SDS011;13773;48.868;10.730;2023-10-31T12:20:50;4.20;;;1.00;;
25982;SDS011;13773;48.868;10.730;2023-10-31T12:23:19;3.20;;;1.63;;
25982;SDS011;13773;48.868;10.730;2023-10-31T12:25:48;3.07;;;1.20;;
25982;SDS011;13773;48.868;10.730;2023-10-31T12:28:21;3.43;;;1.00;;
25982;SDS011;13773;48.868;10.730;2023-10-31T12:30:48;2.07;;;0.70;;
25982;SDS011;13773;48.868;10.730;2023-10-31T12:33:15;1.77;;;0.87;;
25982;SDS011;13773;48.868;10.730;2023-10-31T12:35:42;3.60;;;1.00;;
25982;SDS011;13773;48.868;10.730;2023-10-31T12:38:12;4.40;;;0.93;;
25982;SDS011;13773;48.868;10.730;2023-10-31T12:40:42;1.83;;;0.80;;
25982;SDS011;13773;48.868;10.730;2023-10-31T12:43:09;3.93;;;2.03;;
25982;SDS011;13773;48.868;10.730;2023-10-31T12:45:35;4.47;;;1.10;;
25982;SDS011;13773;48.868;10.730;2023-10-31T12:48:07;1.83;;;0.70;;
25982;SDS011;13773;48.868;10.730;2023-10-31T12:50:35;1.60;;;0.83;;
25982;SDS011;13773;48.868;10.730;2023-10-31T12:53:02;4.83;;;1.10;;
25982;SDS011;13773;48.868;10.730;2023-10-31T12:55:29;4.90;;;1.10;;
25982;SDS011;13773;48.868;10.730;2023-10-31T12:57:56;5.07;;;1.20;;
25982;SDS011;13773;48.868;10.730;2023-10-31T13:00:25;2.07;;;0.73;;
25982;SDS011;13773;48.868;10.730;2023-10-31T13:03:00;3.70;;;1.13;;
25982;SDS011;13773;48.868;10.730;2023-10-31T13:05:31;2.50;;;0.90;;
25982;SDS011;13773;48.868;10.730;2023-10-31T13:07:58;3.53;;;0.97;;
25982;SDS011;13773;48.868;10.730;2023-10-31T13:10:26;2.80;;;1.00;;
25982;SDS011;13773;48.868;10.730;2023-10-31T13:12:59;2.40;;;0.80;;
25982;SDS011;13773;48.868;10.730;2023-10-31T13:15:25;2.27;;;0.70;;
25982;SDS011;13773;48.868;10.730;2023-10-31T13:17:51;1.00;;;0.73;;
25982;SDS011;13773;48.868;10.730;2023-10-31T13:20:18;1.53;;;0.87;;
25982;SDS011;13773;48.868;10.730;2023-10-31T13:22:45;1.60;;;0.73;;
25982;SDS011;13773;48.868;10.730;2023-10-31T13:25:12;2.20;;;1.00;;
25982;SDS011;13773;48.868;10.730;2023-10-31T13:27:42;2.37;;;0.90;;
25982;SDS011;13773;48.868;10.730;2023-10-31T13:30:09;2.97;;;0.90;;
25982;SDS011;13773;48.868;10.730;2023-10-31T13:32:38;5.03;;;1.33;;
25982;SDS011;13773;48.868;10.730;2023-10-31T13:35:05;2.77;;;1.00;;
25982;SDS011;13773;48.868;10.730;2023-10-31T13:37:34;5.37;;;1.07;;
25982;SDS011;13773;48.868;10.730;2023-10-31T13:40:00;2.00;;;1.00;;
25982;SDS011;13773;48.868;10.730;2023-10-31T13:42:26;2.70;;;1.00;;
25982;SDS011;13773;48.868;10.730;2023-10-31T13:44:53;3.20;;;1.90;;
25982;SDS011;13773;48.868;10.730;2023-10-31T13:47:19;2.37;;;1.20;;
25982;SDS011;13773;48.868;10.730;2023-10-31T13:49:44;1.70;;;0.90;;
25982;SDS011;13773;48.868;10.730;2023-10-31T13:52:10;1.60;;;0.90;;
25982;SDS011;13773;48.868;10.730;2023-10-31T13:54:36;2.57;;;1.10;;
25982;SDS011;13773;48.868;10.730;2023-10-31T13:57:02;2.23;;;0.70;;
25982;SDS011;13773;48.868;10.730;2023-10-31T13:59:28;1.07;;;0.63;;
25982;SDS011;13773;48.868;10.730;2023-10-31T14:01:54;1.67;;;0.77;;
25982;SDS011;13773;48.868;10.730;2023-10-31T14:04:20;1.23;;;0.70;;
25982;SDS011;13773;48.868;10.730;2023-10-31T14:06:46;1.53;;;0.70;;
25982;SDS011;13773;48.868;10.730;2023-10-31T14:09:12;1.13;;;0.80;;
25982;SDS011;13773;48.868;10.730;2023-10-31T14:11:39;3.50;;;0.80;;
25982;SDS011;13773;48.868;10.730;2023-10-31T14:14:05;2.60;;;0.70;;
25982;SDS011;13773;48.868;10.730;2023-10-31T14:16:35;3.00;;;1.53;;
25982;SDS011;13773;48.868;10.730;2023-10-31T14:19:04;1.90;;;1.40;;
25982;SDS011;13773;48.868;10.730;2023-10-31T14:21:32;2.80;;;1.30;;
25982;SDS011;13773;48.868;10.730;2023-10-31T14:24:01;1.40;;;1.27;;
25982;SDS011;13773;48.868;10.730;2023-10-31T14:26:28;1.83;;;1.10;;
25982;SDS011;13773;48.868;10.730;2023-10-31T14:28:54;2.63;;;1.10;;
25982;SDS011;13773;48.868;10.730;2023-10-31T14:31:20;3.10;;;1.20;;
25982;SDS011;13773;48.868;10.730;2023-10-31T14:33:46;1.37;;;0.90;;